joomla templates top joomla templates template joomla

King Air Abend

Wetterbeurteilung mit Hilfe Webcam und ATIS

 

Webcam 1Webcam 2

(Zum vergrößern auf das Bild klicken)

Webcam Archiv (Testbetrieb)

Wetteranzeige

Aktuelles Platzwetter Stand 19.05.2019 06:28Z

AvgMinMax
Windrichtung9050130Deg
Windgeschwindigkeit5310kt
Sichtweite>10000m
Temperatur14°C
Taupunkt8°C
Feuchte67%
QNH1005.2hPa
QFE952.2hPa
WolkenSKC

Aerodrome Terminal Information Service (ATIS) Coburg

METAR
EDQC 190620Z AUTO 08006KT 040V110 CAVOK 14/08 Q1005=

Wetterverlauf

Notam

C0503/18 - COBURG INFO CHANGED TO 128.680 (8.33 KHZ). 28 FEB 12:22 2018 UNTIL PERM. CREATED:
28 FEB 12:22 2018

C0132/18 - DIRECTION FINDING STATION (VDF) COMPLETELY WITHDRAWN. 15 FEB 00:01 2018 UNTIL PERM. CREATED: 19 JAN 10:58 2018

Windvorhersage

Verkehrslandeplatz Coburg Brandensteinsebene
Tower
Zur Brandensteinsebene
96450 Coburg

 

Telefon +49 (0) 95 61 / 9 20 98
Telefax +49 (0) 95 61 / 9 20 06
EMail tower@vlp-coburg.de